Time;durP1;ratioP1;P1;durP2;ratioP2;P2;SDS_P1;SDS_P2;PMS_P1;PMS_P2;Temp;Humidity;BMP_temperature;BMP_pressure;BME280_temperature;BME280_humidity;BME280_pressure;Samples;Min_cycle;Max_cycle;Signal;HPM_P1;HPM_P2
2022/09/11 00:01:12;;;;;;;10.70;6.30;;;14.00;99.90;;;;;;5053141;28;20065;-72
2022/09/11 00:03:38;;;;;;;12.05;6.68;;;14.00;99.90;;;;;;5035099;28;20025;-73
2022/09/11 00:06:07;;;;;;;18.63;7.32;;;14.00;99.90;;;;;;5034730;28;20020;-73
2022/09/11 00:08:34;;;;;;;18.15;8.32;;;14.00;99.90;;;;;;5052979;28;20048;-73
2022/09/11 00:11:20;;;;;;;16.13;8.25;;;14.00;99.90;;;;;;5052259;28;20068;-73
2022/09/11 00:13:48;;;;;;;14.10;6.65;;;14.00;99.90;;;;;;5052942;28;20029;-73
2022/09/11 00:16:27;;;;;;;15.73;7.18;;;14.10;99.90;;;;;;5053002;28;20413;-73
2022/09/11 00:18:55;;;;;;;11.70;6.43;;;14.10;99.90;;;;;;5053284;28;20029;-73
2022/09/11 00:21:20;;;;;;;12.88;6.30;;;14.10;99.90;;;;;;5053098;28;20017;-74
2022/09/11 00:23:49;;;;;;;11.93;6.47;;;14.10;99.90;;;;;;5053033;28;20051;-72
2022/09/11 00:26:16;;;;;;;12.88;6.28;;;14.10;99.90;;;;;;5052847;28;20025;-73
2022/09/11 00:28:44;;;;;;;10.80;6.53;;;14.00;99.90;;;;;;5053099;28;20017;-74
2022/09/11 00:31:16;;;;;;;15.98;8.10;;;14.00;99.90;;;;;;5035232;28;20389;-74
2022/09/11 00:33:42;;;;;;;13.95;7.85;;;14.00;99.90;;;;;;5052773;28;20071;-74
2022/09/11 00:36:13;;;;;;;11.15;6.50;;;14.00;99.90;;;;;;5034920;28;20486;-73
2022/09/11 00:38:39;;;;;;;13.15;6.95;;;13.90;99.90;;;;;;5055962;28;20359;-73
2022/09/11 00:41:11;;;;;;;12.50;6.13;;;13.90;99.90;;;;;;5056941;28;20056;-72
2022/09/11 00:43:58;;;;;;;12.52;7.05;;;13.90;99.90;;;;;;5056750;28;20432;-74
2022/09/11 00:46:46;;;;;;;14.02;6.95;;;13.90;99.90;;;;;;5056932;28;20078;-74
2022/09/11 00:49:17;;;;;;;16.13;7.07;;;13.90;99.90;;;;;;5038701;28;20047;-74
2022/09/11 00:51:46;;;;;;;14.98;6.30;;;13.80;99.90;;;;;;5056769;28;20021;-74
2022/09/11 00:54:19;;;;;;;12.25;6.25;;;13.80;99.90;;;;;;5038483;28;20029;-74
2022/09/11 00:56:47;;;;;;;10.38;6.20;;;13.80;99.90;;;;;;5038668;28;20025;-74
2022/09/11 00:59:14;;;;;;;10.95;6.05;;;13.80;99.90;;;;;;5056520;28;20083;-75
2022/09/11 01:01:40;;;;;;;11.23;6.40;;;13.80;99.90;;;;;;5056330;28;20059;-74
2022/09/11 01:04:07;;;;;;;10.90;5.95;;;13.70;99.90;;;;;;5056403;28;20025;-74
2022/09/11 01:06:33;;;;;;;13.75;6.68;;;13.70;99.90;;;;;;5038701;28;20013;-74
2022/09/11 01:08:58;;;;;;;22.55;6.30;;;13.70;99.90;;;;;;5056144;28;20025;-74
2022/09/11 01:11:30;;;;;;;13.65;6.20;;;13.60;99.90;;;;;;5038359;28;20048;-74
2022/09/11 01:14:11;;;;;;;11.20;5.88;;;13.60;99.90;;;;;;5056172;28;20041;-74
2022/09/11 01:16:44;;;;;;;11.65;5.60;;;13.50;99.90;;;;;;5038484;28;20398;-74
2022/09/11 01:19:36;;;;;;;13.13;6.18;;;13.50;99.90;;;;;;5056284;28;20048;-74
2022/09/11 01:22:13;;;;;;;12.98;6.65;;;13.40;99.90;;;;;;5056683;28;20025;-75
2022/09/11 01:25:14;;;;;;;11.68;7.03;;;13.40;99.90;;;;;;5038388;28;20367;-73
2022/09/11 01:27:43;;;;;;;15.35;7.05;;;13.40;99.90;;;;;;5056222;28;20029;-73
2022/09/11 01:30:21;;;;;;;12.95;6.55;;;13.40;99.90;;;;;;5037991;28;20017;-74
2022/09/11 01:33:05;;;;;;;16.25;6.20;;;13.40;99.90;;;;;;5055860;28;20534;-74
2022/09/11 01:35:31;;;;;;;12.32;6.40;;;13.40;99.90;;;;;;5055838;28;20029;-74
2022/09/11 01:38:02;;;;;;;10.73;5.93;;;13.40;99.90;;;;;;5055758;28;20105;-73
2022/09/11 01:41:06;;;;;;;10.77;5.78;;;13.40;99.90;;;;;;5055733;28;20025;-74
2022/09/11 01:43:39;;;;;;;12.63;6.10;;;13.30;99.90;;;;;;5037757;28;20478;-74
2022/09/11 01:46:06;;;;;;;10.63;5.60;;;13.30;99.90;;;;;;5055473;28;20025;-74
2022/09/11 01:48:38;;;;;;;11.48;5.72;;;13.30;99.90;;;;;;5055313;28;20029;-74
2022/09/11 01:51:06;;;;;;;13.32;7.65;;;13.30;99.90;;;;;;5055663;28;20427;-74
2022/09/11 01:53:36;;;;;;;30.90;10.00;;;13.30;99.90;;;;;;5055991;28;20554;-74
2022/09/11 01:56:08;;;;;;;15.95;9.05;;;13.30;99.90;;;;;;5055104;28;20035;-73
2022/09/11 01:58:35;;;;;;;15.05;7.72;;;13.30;99.90;;;;;;5055298;28;20025;-73
2022/09/11 02:01:23;;;;;;;15.40;8.02;;;13.30;99.90;;;;;;5055210;28;20028;-73
2022/09/11 02:04:00;;;;;;;11.82;6.28;;;13.20;99.90;;;;;;5055184;28;20059;-73
2022/09/11 02:06:51;;;;;;;13.98;7.13;;;13.20;99.90;;;;;;5055442;28;20100;-74
2022/09/11 02:09:22;;;;;;;119.13;8.88;;;13.20;99.90;;;;;;5055955;28;20029;-74
2022/09/11 02:11:52;;;;;;;12.80;7.05;;;13.20;99.90;;;;;;5037388;28;20389;-74
2022/09/11 02:14:22;;;;;;;15.27;6.55;;;13.20;99.90;;;;;;5055015;28;20041;-74
2022/09/11 02:17:04;;;;;;;14.30;6.72;;;13.10;99.90;;;;;;5055135;28;20017;-74
2022/09/11 02:19:30;;;;;;;11.48;5.80;;;13.10;99.90;;;;;;5037425;28;20025;-73
2022/09/11 02:21:57;;;;;;;11.35;6.35;;;13.70;99.90;;;;;;5055570;28;20073;-73
2022/09/11 02:24:24;;;;;;;18.63;7.82;;;13.10;99.90;;;;;;5055104;28;20024;-73
2022/09/11 02:27:10;;;;;;;20.45;6.15;;;13.00;99.90;;;;;;5055034;28;20017;-74
2022/09/11 02:29:38;;;;;;;15.93;7.28;;;13.00;99.90;;;;;;5055281;28;20048;-74
2022/09/11 02:32:04;;;;;;;14.90;7.30;;;13.00;99.90;;;;;;5036963;28;20009;-73
2022/09/11 02:34:34;;;;;;;15.30;6.93;;;12.90;99.90;;;;;;5054797;28;20021;-74
2022/09/11 02:36:59;;;;;;;14.65;7.15;;;12.90;99.90;;;;;;5054752;28;20020;-74
2022/09/11 02:39:49;;;;;;;15.40;7.35;;;12.90;99.90;;;;;;5036995;28;20029;-73
2022/09/11 02:42:36;;;;;;;16.40;6.53;;;12.90;99.90;;;;;;5054577;28;20025;-73
2022/09/11 02:45:11;;;;;;;12.20;6.68;;;12.90;99.90;;;;;;5054454;28;20111;-74
2022/09/11 02:47:42;;;;;;;19.00;6.65;;;12.90;99.90;;;;;;5036060;28;20406;-74
2022/09/11 02:50:32;;;;;;;9.10;5.32;;;12.90;99.90;;;;;;5054495;28;20021;-73
2022/09/11 02:53:19;;;;;;;12.13;6.20;;;12.90;99.90;;;;;;5054312;28;20036;-73
2022/09/11 02:56:15;;;;;;;19.42;6.25;;;12.80;99.90;;;;;;5054928;28;20029;-72
2022/09/11 02:58:58;;;;;;;16.35;6.68;;;12.80;99.90;;;;;;5054846;28;20425;-76
2022/09/11 03:01:24;;;;;;;11.85;6.63;;;12.80;99.90;;;;;;5054174;28;20021;-76
2022/09/11 03:03:50;;;;;;;11.02;6.32;;;12.70;99.90;;;;;;5036411;28;20025;-78
2022/09/11 03:06:21;;;;;;;13.80;6.50;;;12.70;99.90;;;;;;5054300;28;20024;-76
2022/09/11 03:08:48;;;;;;;11.18;5.82;;;12.70;99.90;;;;;;5036346;28;20124;-77
2022/09/11 03:11:19;;;;;;;10.98;5.35;;;12.70;99.90;;;;;;5054390;28;20071;-75
2022/09/11 03:13:45;;;;;;;10.45;6.55;;;12.60;99.90;;;;;;5053944;28;20043;-77
2022/09/11 03:16:11;;;;;;;11.30;6.43;;;12.70;99.90;;;;;;5054053;28;20021;-76
2022/09/11 03:18:37;;;;;;;10.50;5.38;;;12.60;99.90;;;;;;5054619;28;20056;-76
2022/09/11 03:21:03;;;;;;;12.32;5.68;;;12.60;99.90;;;;;;5035895;28;20063;-76
2022/09/11 03:23:29;;;;;;;15.55;7.93;;;12.60;99.90;;;;;;5035840;28;20017;-75
2022/09/11 03:25:55;;;;;;;14.77;6.85;;;12.60;99.90;;;;;;5053758;28;20108;-76
2022/09/11 03:28:22;;;;;;;14.50;6.97;;;12.60;99.90;;;;;;5053823;28;20110;-78
2022/09/11 03:30:48;;;;;;;16.77;7.95;;;12.50;99.90;;;;;;5054502;28;20021;-76
2022/09/11 03:33:16;;;;;;;15.43;7.88;;;12.60;99.90;;;;;;5053709;28;20029;-76
2022/09/11 03:35:43;;;;;;;16.45;7.15;;;12.50;99.90;;;;;;5053635;28;20025;-76
2022/09/11 03:38:10;;;;;;;16.60;7.13;;;12.50;99.90;;;;;;5035653;28;20024;-76
2022/09/11 03:40:36;;;;;;;21.48;8.90;;;12.50;99.90;;;;;;5054100;28;20040;-76
2022/09/11 03:43:02;;;;;;;13.48;7.05;;;12.50;99.90;;;;;;5035897;28;20033;-76
2022/09/11 03:45:28;;;;;;;13.73;7.20;;;12.50;99.90;;;;;;5035450;28;20024;-76
2022/09/11 03:47:53;;;;;;;15.57;7.57;;;12.40;99.90;;;;;;5035627;28;20023;-76
2022/09/11 03:50:19;;;;;;;15.93;8.38;;;12.50;99.90;;;;;;5054099;28;20096;-76
2022/09/11 03:52:44;;;;;;;16.33;8.52;;;12.40;99.90;;;;;;5053419;28;20028;-76
2022/09/11 03:55:10;;;;;;;29.10;9.63;;;12.50;99.90;;;;;;5053499;28;20021;-75
2022/09/11 03:57:37;;;;;;;19.27;8.80;;;12.50;99.90;;;;;;5053157;28;20090;-76
2022/09/11 04:00:04;;;;;;;20.27;8.93;;;12.40;99.90;;;;;;5053093;28;20021;-76
2022/09/11 04:02:30;;;;;;;19.73;9.88;;;12.40;99.90;;;;;;5053733;28;20020;-76
2022/09/11 04:04:56;;;;;;;21.23;9.77;;;12.40;99.90;;;;;;5053195;28;20431;-76
2022/09/11 04:07:22;;;;;;;24.20;10.27;;;12.40;99.90;;;;;;5053161;28;20091;-76
2022/09/11 04:09:48;;;;;;;26.67;11.07;;;12.40;99.90;;;;;;5053479;28;20382;-76
2022/09/11 04:12:13;;;;;;;61.75;11.88;;;12.30;99.90;;;;;;5052079;28;20029;-77
2022/09/11 04:14:39;;;;;;;56.35;12.50;;;12.30;99.90;;;;;;5054219;28;20103;-77
2022/09/11 04:17:07;;;;;;;55.45;12.73;;;12.30;99.90;;;;;;5054094;28;20091;-77
2022/09/11 04:19:35;;;;;;;51.95;11.73;;;12.30;99.90;;;;;;5053563;28;20016;-77
2022/09/11 04:22:02;;;;;;;142.70;12.10;;;12.30;99.90;;;;;;5053439;28;20025;-77
2022/09/11 04:24:28;;;;;;;47.10;10.70;;;12.30;99.90;;;;;;5035176;28;20051;-76
2022/09/11 04:26:53;;;;;;;22.98;10.43;;;12.20;99.90;;;;;;5052898;28;20021;-76
2022/09/11 04:29:21;;;;;;;23.55;11.65;;;12.10;99.90;;;;;;5052815;28;20013;-77
2022/09/11 04:31:46;;;;;;;48.97;10.63;;;12.10;99.90;;;;;;5052786;28;20071;-76
2022/09/11 04:34:12;;;;;;;110.00;10.57;;;12.10;99.90;;;;;;5052748;28;20028;-76
2022/09/11 04:36:37;;;;;;;19.27;9.00;;;12.10;99.90;;;;;;5052789;28;20052;-76
2022/09/11 04:39:03;;;;;;;16.85;9.13;;;12.00;99.90;;;;;;5035150;28;20021;-76
2022/09/11 04:41:29;;;;;;;17.63;8.18;;;12.00;99.90;;;;;;5052980;28;20108;-76
2022/09/11 04:43:59;;;;;;;37.92;8.32;;;12.00;99.90;;;;;;5052809;28;20036;-76
2022/09/11 04:46:25;;;;;;;20.38;8.77;;;12.00;99.90;;;;;;5035020;28;20021;-75
2022/09/11 04:48:53;;;;;;;17.63;9.02;;;11.90;99.90;;;;;;5052922;28;20032;-75
2022/09/11 04:51:31;;;;;;;16.17;8.32;;;11.90;99.90;;;;;;5052715;28;20108;-76
2022/09/11 04:53:58;;;;;;;16.15;8.15;;;11.90;99.90;;;;;;5034817;28;20029;-76
2022/09/11 04:56:29;;;;;;;16.90;8.88;;;11.90;99.90;;;;;;5053618;28;20075;-76
2022/09/11 04:59:00;;;;;;;18.15;8.65;;;11.90;99.90;;;;;;5052976;28;20041;-75
2022/09/11 05:01:28;;;;;;;19.67;9.40;;;11.90;99.90;;;;;;5052685;28;20025;-76
2022/09/11 05:03:55;;;;;;;16.38;8.48;;;11.90;99.90;;;;;;5052926;28;20025;-77
2022/09/11 05:06:21;;;;;;;15.52;7.50;;;11.90;99.90;;;;;;5035211;28;20013;-76
2022/09/11 05:08:47;;;;;;;18.17;8.23;;;11.90;99.90;;;;;;5035016;28;20037;-76
2022/09/11 05:11:15;;;;;;;17.02;7.57;;;11.90;99.90;;;;;;5034923;28;20027;-76
2022/09/11 05:13:41;;;;;;;15.82;7.35;;;11.80;99.90;;;;;;5017462;23;20133;-74
2022/09/11 05:16:11;;;;;;;18.20;9.07;;;11.80;99.90;;;;;;5012863;28;20474;-74
2022/09/11 05:18:38;;;;;;;19.15;8.82;;;11.80;99.90;;;;;;5013182;28;20407;-73
2022/09/11 05:21:07;;;;;;;18.73;8.55;;;11.80;99.90;;;;;;5013056;28;20101;-73
2022/09/11 05:23:33;;;;;;;18.75;7.80;;;11.80;99.90;;;;;;5013765;28;20034;-73
2022/09/11 05:26:00;;;;;;;16.40;8.05;;;11.90;99.90;;;;;;5016395;28;20022;-73
2022/09/11 05:28:27;;;;;;;16.52;8.32;;;11.90;99.90;;;;;;5016380;28;20390;-73
2022/09/11 05:30:56;;;;;;;17.88;8.80;;;11.90;99.90;;;;;;5016618;28;20396;-73
2022/09/11 05:33:22;;;;;;;16.30;8.20;;;11.90;99.90;;;;;;5016277;28;20028;-74
2022/09/11 05:35:49;;;;;;;17.98;8.27;;;11.90;99.90;;;;;;5015707;28;20415;-74
2022/09/11 05:38:16;;;;;;;14.30;7.32;;;12.00;99.90;;;;;;5016180;28;20026;-73
2022/09/11 05:40:47;;;;;;;15.88;8.18;;;12.00;99.90;;;;;;5016728;28;20076;-74
2022/09/11 05:43:14;;;;;;;16.42;8.05;;;12.10;99.90;;;;;;5016076;28;20030;-73
2022/09/11 05:45:43;;;;;;;25.55;10.55;;;12.20;99.90;;;;;;5015741;28;20026;-73
2022/09/11 05:48:09;;;;;;;31.73;11.43;;;12.30;99.90;;;;;;5016397;28;20430;-74
2022/09/11 05:50:35;;;;;;;27.98;9.27;;;12.40;99.90;;;;;;5015905;28;20021;-73
2022/09/11 05:53:01;;;;;;;94.35;11.95;;;12.40;99.90;;;;;;5016195;28;20068;-74
2022/09/11 05:55:27;;;;;;;63.83;11.27;;;12.50;99.90;;;;;;5015445;28;20451;-74
2022/09/11 05:57:53;;;;;;;32.17;11.18;;;12.60;99.90;;;;;;5015474;28;20084;-74
2022/09/11 06:00:19;;;;;;;61.42;11.43;;;12.70;99.90;;;;;;5015849;28;20034;-74
2022/09/11 06:02:47;;;;;;;42.28;10.20;;;12.80;99.90;;;;;;5015987;28;20405;-74
2022/09/11 06:05:14;;;;;;;100.78;12.57;;;12.90;99.90;;;;;;4997781;28;20552;-74
2022/09/11 06:07:41;;;;;;;95.78;9.82;;;12.90;99.90;;;;;;5015746;28;20018;-74
2022/09/11 06:10:07;;;;;;;126.43;11.02;;;13.00;99.90;;;;;;5015720;28;20026;-73
2022/09/11 06:12:33;;;;;;;80.40;10.52;;;13.00;99.90;;;;;;5015616;28;20053;-74
2022/09/11 06:14:59;;;;;;;80.75;12.18;;;13.10;99.90;;;;;;5015102;28;20438;-74
2022/09/11 06:17:25;;;;;;;85.45;11.05;;;13.20;99.90;;;;;;5015708;28;20049;-74
2022/09/11 06:19:50;;;;;;;105.45;11.50;;;13.30;99.90;;;;;;5015300;28;20021;-74
2022/09/11 06:22:16;;;;;;;109.03;10.40;;;13.50;99.90;;;;;;5015946;28;20033;-74
2022/09/11 06:24:42;;;;;;;117.05;11.50;;;13.60;99.90;;;;;;5014990;28;20045;-74
2022/09/11 06:27:07;;;;;;;53.17;8.85;;;13.70;99.90;;;;;;5015428;28;20029;-75
2022/09/11 06:29:33;;;;;;;32.25;8.57;;;13.70;99.90;;;;;;5015302;28;20037;-74
2022/09/11 06:31:59;;;;;;;27.38;8.48;;;13.80;99.90;;;;;;5015150;28;20021;-74
2022/09/11 06:34:25;;;;;;;31.48;9.30;;;13.90;99.90;;;;;;5011779;28;20476;-75
2022/09/11 06:36:51;;;;;;;66.35;9.95;;;14.30;99.90;;;;;;5001323;28;20026;-75
2022/09/11 06:39:19;;;;;;;32.13;9.45;;;14.20;99.90;;;;;;5015129;28;20033;-75
2022/09/11 06:41:45;;;;;;;40.42;8.70;;;14.30;99.90;;;;;;4997538;28;20101;-75
2022/09/11 06:44:10;;;;;;;45.05;9.60;;;14.40;99.90;;;;;;5014595;28;20422;-75
2022/09/11 06:46:36;;;;;;;37.17;8.43;;;14.50;99.90;;;;;;5015032;28;20014;-74
2022/09/11 06:49:01;;;;;;;22.25;8.25;;;14.60;99.90;;;;;;5015475;28;20022;-74
2022/09/11 06:51:27;;;;;;;28.80;8.85;;;14.70;99.90;;;;;;5015025;28;20033;-74
2022/09/11 06:53:56;;;;;;;28.20;8.50;;;14.80;99.90;;;;;;5015188;28;20479;-74
2022/09/11 06:56:22;;;;;;;44.70;9.50;;;14.80;99.90;;;;;;5014779;28;20502;-74
2022/09/11 06:58:49;;;;;;;27.35;9.45;;;14.90;99.90;;;;;;5013473;28;20030;-74
2022/09/11 07:01:19;;;;;;;31.13;10.38;;;15.00;99.90;;;;;;4977700;28;20092;-74
2022/09/11 07:03:47;;;;;;;36.60;11.30;;;15.10;99.90;;;;;;4994904;28;20395;-73
2022/09/11 07:06:14;;;;;;;25.25;9.85;;;15.20;99.90;;;;;;4995129;28;20023;-73
2022/09/11 07:08:40;;;;;;;32.33;10.02;;;15.30;99.90;;;;;;5007943;28;20030;-74
2022/09/11 07:11:07;;;;;;;21.17;8.27;;;15.40;99.90;;;;;;5015212;28;20067;-73
2022/09/11 07:13:33;;;;;;;22.55;10.05;;;15.50;99.90;;;;;;5014337;28;20033;-73
2022/09/11 07:16:00;;;;;;;26.92;10.55;;;15.50;99.90;;;;;;5014686;28;20018;-74
2022/09/11 07:18:32;;;;;;;21.85;11.15;;;15.60;99.90;;;;;;5014492;28;20022;-74
2022/09/11 07:20:58;;;;;;;20.55;10.90;;;15.70;99.90;;;;;;5015149;28;20037;-73
2022/09/11 07:23:24;;;;;;;22.85;10.75;;;15.80;99.90;;;;;;5014471;28;20382;-75
2022/09/11 07:25:50;;;;;;;19.45;10.38;;;15.90;99.90;;;;;;5014122;28;20105;-73
2022/09/11 07:28:15;;;;;;;19.95;10.90;;;16.00;99.90;;;;;;5014313;28;20024;-73
2022/09/11 07:30:41;;;;;;;18.35;10.38;;;16.10;99.90;;;;;;5014530;28;20058;-74
2022/09/11 07:33:06;;;;;;;22.23;11.73;;;16.20;99.90;;;;;;5014303;28;20053;-74
2022/09/11 07:35:35;;;;;;;23.58;11.05;;;16.30;99.90;;;;;;4996655;28;20024;-75
2022/09/11 07:38:01;;;;;;;17.75;10.25;;;16.50;99.90;;;;;;5014269;28;20030;-73
2022/09/11 07:40:26;;;;;;;23.83;11.57;;;16.70;99.90;;;;;;5014751;28;20030;-74
2022/09/11 07:42:52;;;;;;;18.98;10.38;;;16.90;99.90;;;;;;5014107;28;20434;-74
2022/09/11 07:45:18;;;;;;;19.50;10.77;;;16.90;99.90;;;;;;4996400;28;20030;-74
2022/09/11 07:47:43;;;;;;;20.13;10.52;;;17.00;99.90;;;;;;4996275;28;20467;-74
2022/09/11 07:50:10;;;;;;;15.50;8.93;;;17.00;99.90;;;;;;4996839;28;20018;-74
2022/09/11 07:52:35;;;;;;;18.05;9.43;;;17.00;99.90;;;;;;5015491;28;20022;-73
2022/09/11 07:55:02;;;;;;;18.60;10.20;;;17.00;99.90;;;;;;5014790;28;20029;-73
2022/09/11 07:57:29;;;;;;;15.52;9.73;;;17.00;99.90;;;;;;5014165;28;20081;-75
2022/09/11 07:59:55;;;;;;;14.43;9.05;;;17.00;99.90;;;;;;5013929;28;20022;-74
2022/09/11 08:02:21;;;;;;;13.30;8.43;;;17.10;99.90;;;;;;5014166;28;20390;-74
2022/09/11 08:04:46;;;;;;;18.15;9.88;;;17.20;99.90;;;;;;5014021;28;20148;-76
2022/09/11 08:07:12;;;;;;;11.57;7.85;;;17.40;99.90;;;;;;5014118;28;20014;-73
2022/09/11 08:09:38;;;;;;;12.48;7.07;;;17.60;99.90;;;;;;5014568;28;20379;-73
2022/09/11 08:12:04;;;;;;;15.18;7.47;;;17.80;99.90;;;;;;5014067;28;20026;-73
2022/09/11 08:14:30;;;;;;;11.15;6.68;;;18.00;99.90;;;;;;4996075;28;20068;-73
2022/09/11 08:16:55;;;;;;;10.93;6.93;;;18.20;99.90;;;;;;5013826;28;20471;-73
2022/09/11 08:19:22;;;;;;;9.65;5.90;;;18.40;99.90;;;;;;5013922;28;20521;-72
2022/09/11 08:21:50;;;;;;;8.60;5.35;;;18.50;99.90;;;;;;5013611;28;20026;-74
2022/09/11 08:24:16;;;;;;;7.43;4.57;;;18.80;99.90;;;;;;4995915;28;20076;-75
2022/09/11 08:26:42;;;;;;;3.08;2.45;;;19.00;99.90;;;;;;5014430;28;20026;-74
2022/09/11 08:29:08;;;;;;;4.30;1.88;;;19.20;99.90;;;;;;5014819;28;20029;-75
2022/09/11 08:31:34;;;;;;;7.60;2.63;;;19.40;99.90;;;;;;4995747;28;20026;-75
2022/09/11 08:34:00;;;;;;;3.45;1.80;;;19.60;99.90;;;;;;5013682;28;20025;-75
2022/09/11 08:36:25;;;;;;;6.05;2.22;;;19.70;99.90;;;;;;5002240;28;20033;-74
2022/09/11 08:38:51;;;;;;;5.60;1.13;;;20.00;99.90;;;;;;5013843;28;20026;-73
2022/09/11 08:41:29;;;;;;;3.42;1.10;;;20.40;99.90;;;;;;4996143;28;20018;-73
2022/09/11 08:44:20;;;;;;;2.70;0.90;;;20.70;99.90;;;;;;5014047;28;20033;-73
2022/09/11 08:46:51;;;;;;;1.75;0.65;;;21.00;99.90;;;;;;4995259;28;20864;-72
2022/09/11 08:49:38;;;;;;;1.73;0.32;;;20.80;99.90;;;;;;5012125;28;20030;-74
2022/09/11 08:52:05;;;;;;;1.35;0.60;;;20.90;99.90;;;;;;5009338;28;20177;-74
2022/09/11 08:54:36;;;;;;;2.97;0.70;;;21.00;99.90;;;;;;5003189;28;20025;-74
2022/09/11 08:57:32;;;;;;;2.25;0.55;;;20.90;99.90;;;;;;4995261;28;20069;-73
2022/09/11 09:00:08;;;;;;;1.95;0.63;;;20.90;99.90;;;;;;4991575;28;20390;-73
2022/09/11 09:03:08;;;;;;;1.95;0.73;;;21.00;99.90;;;;;;5017316;28;20033;-73
2022/09/11 09:05:39;;;;;;;2.00;0.40;;;21.20;99.90;;;;;;5017895;28;20022;-73
2022/09/11 09:08:48;;;;;;;1.38;0.40;;;21.20;99.90;;;;;;4999883;28;20026;-73
2022/09/11 09:11:30;;;;;;;1.90;0.47;;;21.10;99.90;;;;;;5017603;28;20022;-73
2022/09/11 09:14:20;;;;;;;6.85;0.47;;;21.20;99.90;;;;;;4999971;28;20049;-74
2022/09/11 09:16:51;;;;;;;2.65;1.02;;;21.40;99.90;;;;;;5017435;28;20080;-73
2022/09/11 09:19:26;;;;;;;1.38;0.38;;;21.40;99.90;;;;;;5016726;28;20021;-73
2022/09/11 09:22:10;;;;;;;3.15;0.50;;;21.60;99.90;;;;;;5016429;28;20495;-73
2022/09/11 09:24:45;;;;;;;2.25;0.65;;;21.50;99.90;;;;;;5016530;28;20108;-72
2022/09/11 09:27:17;;;;;;;2.72;0.10;;;21.50;99.90;;;;;;5016618;28;20433;-74
2022/09/11 09:29:47;;;;;;;1.13;0.10;;;21.30;99.90;;;;;;5015923;28;20062;-73
2022/09/11 09:32:41;;;;;;;1.92;0.22;;;21.10;99.90;;;;;;4998542;28;20026;-75
2022/09/11 09:35:20;;;;;;;1.33;0.20;;;20.90;99.90;;;;;;5005528;28;20077;-73
2022/09/11 09:37:47;;;;;;;0.25;0.10;;;20.60;99.90;;;;;;5016453;28;20455;-73
2022/09/11 09:40:16;;;;;;;2.35;0.60;;;20.50;99.90;;;;;;5016239;28;20156;-73
2022/09/11 09:42:53;;;;;;;3.03;0.10;;;20.40;99.90;;;;;;5014500;28;20467;-73
2022/09/11 09:46:03;;;;;;;1.40;0.00;;;20.40;99.90;;;;;;4993465;28;20033;-73
2022/09/11 09:48:35;;;;;;;4.13;0.65;;;20.70;99.90;;;;;;4993607;28;20407;-73
2022/09/11 09:51:02;;;;;;;1.65;0.20;;;21.10;99.90;;;;;;4995673;28;20018;-73
2022/09/11 09:53:34;;;;;;;1.73;0.20;;;21.40;99.90;;;;;;4997135;28;20487;-73
2022/09/11 09:56:03;;;;;;;1.60;0.38;;;21.70;99.90;;;;;;5015423;28;20423;-73
2022/09/11 09:58:39;;;;;;;1.23;0.40;;;22.00;99.90;;;;;;5016005;28;20037;-73
2022/09/11 10:01:47;;;;;;;0.30;0.13;;;22.00;99.90;;;;;;5015324;28;20034;-74
2022/09/11 10:04:14;;;;;;;4.75;0.25;;;21.80;99.90;;;;;;4920003;29;20390;-73
2022/09/11 10:06:40;;;;;;;0.75;0.00;;;21.50;99.90;;;;;;4935001;29;20055;-76
2022/09/11 10:09:27;;;;;;;0.30;0.20;;;21.20;99.90;;;;;;4946565;28;20116;-76
2022/09/11 10:12:06;;;;;;;1.58;0.22;;;20.90;99.90;;;;;;4999527;28;20372;-77
2022/09/11 10:14:41;;;;;;;0.93;0.05;;;21.00;99.90;;;;;;5016282;28;20033;-77
2022/09/11 10:17:22;;;;;;;5.55;0.38;;;21.30;99.90;;;;;;5016693;28;20064;-77
2022/09/11 10:19:54;;;;;;;2.45;0.45;;;21.80;99.90;;;;;;5014678;28;20498;-77
2022/09/11 10:22:27;;;;;;;1.95;0.00;;;22.20;99.90;;;;;;4997306;28;20391;-79
2022/09/11 10:25:14;;;;;;;0.55;0.03;;;22.60;99.90;;;;;;4999853;28;20524;-79
2022/09/11 10:27:44;;;;;;;1.40;0.00;;;22.80;99.90;;;;;;4998197;28;20520;-78
2022/09/11 10:30:34;;;;;;;2.08;0.20;;;22.90;99.90;;;;;;4980593;28;20053;-77
2022/09/11 10:33:04;;;;;;;2.38;0.10;;;23.10;99.90;;;;;;4987208;28;20511;-78
2022/09/11 10:35:31;;;;;;;1.55;0.10;;;23.40;99.90;;;;;;4997298;28;20084;-78
2022/09/11 10:38:12;;;;;;;1.20;0.10;;;23.30;99.90;;;;;;4997518;28;20423;-78
2022/09/11 10:40:39;;;;;;;0.98;0.00;;;23.20;99.90;;;;;;4998938;28;20026;-76
2022/09/11 10:43:15;;;;;;;5.72;0.22;;;23.90;99.90;;;;;;4995639;28;20033;-76
2022/09/11 10:45:57;;;;;;;2.00;0.00;;;23.50;99.90;;;;;;4995372;28;20427;-77
2022/09/11 10:48:23;;;;;;;0.50;0.00;;;23.70;99.90;;;;;;4995571;28;20076;-75
2022/09/11 10:51:04;;;;;;;0.22;0.10;;;23.80;99.90;;;;;;4995250;28;20468;-76
2022/09/11 10:53:36;;;;;;;2.45;0.32;;;23.60;99.90;;;;;;4995294;28;20023;-76
2022/09/11 10:56:04;;;;;;;2.08;0.10;;;23.40;99.90;;;;;;4977974;28;20026;-75
2022/09/11 10:58:35;;;;;;;1.00;0.00;;;23.10;99.90;;;;;;4977732;28;20022;-75
2022/09/11 11:01:01;;;;;;;1.42;0.00;;;23.10;99.90;;;;;;4994940;28;20042;-76
2022/09/11 11:03:27;;;;;;;4.57;0.38;;;23.10;99.90;;;;;;4995571;28;20435;-76
2022/09/11 11:06:28;;;;;;;0.52;0.28;;;23.00;99.90;;;;;;4997278;28;20029;-79
2022/09/11 11:09:11;;;;;;;0.70;0.00;;;22.60;99.90;;;;;;5013978;28;20025;-78
2022/09/11 11:11:49;;;;;;;2.35;0.10;;;22.60;99.90;;;;;;5017105;28;20032;-77
2022/09/11 11:14:39;;;;;;;1.55;0.00;;;22.70;99.90;;;;;;5015843;28;20052;-78
2022/09/11 11:17:24;;;;;;;0.35;0.00;;;23.10;99.90;;;;;;4997644;28;20414;-77
2022/09/11 11:20:12;;;;;;;0.38;0.00;;;23.50;99.90;;;;;;4995995;28;20030;-77
2022/09/11 11:23:08;;;;;;;1.73;0.10;;;23.90;99.90;;;;;;4995572;28;20427;-78
2022/09/11 11:26:10;;;;;;;0.50;0.00;;;24.20;99.90;;;;;;4995752;28;20022;-78
2022/09/11 11:28:59;;;;;;;0.95;0.30;;;24.50;99.90;;;;;;5007042;28;20468;-77
2022/09/11 11:31:50;;;;;;;0.52;0.00;;;24.70;99.90;;;;;;5016208;28;20022;-77
2022/09/11 11:34:34;;;;;;;4.07;0.20;;;24.80;99.90;;;;;;4998229;28;20037;-78
2022/09/11 11:37:24;;;;;;;0.45;0.00;;;24.80;98.40;;;;;;4997834;28;20130;-78
2022/09/11 11:40:17;;;;;;;1.60;0.13;;;24.70;99.00;;;;;;5014335;28;20072;-77
2022/09/11 11:42:51;;;;;;;0.30;0.03;;;24.40;99.60;;;;;;4995632;28;20490;-73
2022/09/11 11:45:33;;;;;;;1.42;0.20;;;24.60;99.90;;;;;;4994835;28;20015;-73
2022/09/11 11:48:07;;;;;;;2.35;0.10;;;24.50;99.90;;;;;;4995396;28;20109;-73
2022/09/11 11:50:47;;;;;;;1.25;0.10;;;24.60;99.90;;;;;;4976928;28;20025;-73
2022/09/11 11:53:42;;;;;;;1.65;0.63;;;24.70;99.20;;;;;;4976853;28;20119;-73
2022/09/11 11:56:29;;;;;;;1.50;0.40;;;24.90;99.90;;;;;;4994519;28;20403;-73
2022/09/11 11:59:15;;;;;;;0.77;0.10;;;25.30;98.90;;;;;;4994252;28;20035;-73
2022/09/11 12:02:02;;;;;;;1.48;0.10;;;25.20;98.50;;;;;;4994282;28;20369;-73
2022/09/11 12:04:51;;;;;;;1.73;0.10;;;25.50;98.50;;;;;;4976783;28;20530;-73
2022/09/11 12:07:20;;;;;;;3.17;0.00;;;25.90;96.20;;;;;;4994120;28;20022;-73
2022/09/11 12:09:48;;;;;;;1.48;0.10;;;26.00;96.80;;;;;;4994647;28;20034;-73
2022/09/11 12:12:15;;;;;;;0.52;0.00;;;25.80;95.60;;;;;;4993845;28;20080;-73
2022/09/11 12:14:52;;;;;;;0.28;0.28;;;26.10;96.10;;;;;;4976467;28;20026;-73
2022/09/11 12:17:27;;;;;;;1.50;0.10;;;26.50;96.10;;;;;;4994004;28;20022;-73
2022/09/11 12:20:12;;;;;;;1.80;0.10;;;26.50;94.30;;;;;;4976594;28;20488;-73
2022/09/11 12:22:47;;;;;;;2.03;0.00;;;26.70;92.40;;;;;;4976575;28;20129;-73
2022/09/11 12:25:21;;;;;;;2.28;0.55;;;26.80;91.80;;;;;;4994137;28;20088;-73
2022/09/11 12:27:54;;;;;;;1.13;0.00;;;26.70;92.00;;;;;;4994154;28;20031;-73
2022/09/11 12:30:23;;;;;;;1.33;0.00;;;26.70;91.30;;;;;;4976430;28;20483;-73
2022/09/11 12:32:51;;;;;;;0.50;0.00;;;26.20;92.80;;;;;;4976372;28;20081;-72
2022/09/11 12:35:19;;;;;;;0.30;0.00;;;25.70;93.30;;;;;;4997621;28;20037;-72
2022/09/11 12:37:51;;;;;;;0.52;0.30;;;25.20;94.40;;;;;;4980339;28;20030;-74
2022/09/11 12:40:55;;;;;;;0.90;0.17;;;24.50;94.10;;;;;;4997937;28;20022;-72
2022/09/11 12:43:46;;;;;;;3.70;0.28;;;24.10;95.50;;;;;;4997723;28;20479;-73
2022/09/11 12:46:33;;;;;;;1.40;0.30;;;23.70;96.50;;;;;;4979956;28;20476;-72
2022/09/11 12:49:04;;;;;;;2.83;0.55;;;23.40;97.50;;;;;;4958340;28;20424;-72
2022/09/11 12:51:33;;;;;;;0.50;0.00;;;23.30;98.20;;;;;;4998042;28;20077;-72
2022/09/11 12:54:00;;;;;;;;;;;23.10;98.80;;;;;;4980251;28;20022;-72
2022/09/11 12:56:29;;;;;;;1.60;0.22;;;23.00;99.90;;;;;;4997193;28;19912;-72
2022/09/11 12:58:57;;;;;;;;;;;23.00;99.90;;;;;;4997871;28;20479;-72
2022/09/11 13:01:29;;;;;;;0.90;0.10;;;22.90;99.90;;;;;;4997530;28;19905;-72
2022/09/11 13:04:09;;;;;;;1.40;0.10;;;22.90;99.90;;;;;;4997697;28;20027;-72